createdAt,value
2022-12-09T00:01:48.119Z,6.60
2022-12-09T00:07:18.428Z,7.99
2022-12-09T00:12:36.520Z,7.97
2022-12-09T00:17:46.914Z,7.70
2022-12-09T00:23:11.692Z,7.97
2022-12-09T00:28:28.499Z,6.91
2022-12-09T00:33:42.105Z,8.04
2022-12-09T00:38:49.071Z,6.86
2022-12-09T00:44:18.161Z,7.28
2022-12-09T00:49:24.772Z,6.92
2022-12-09T00:55:11.879Z,6.53
2022-12-09T01:00:18.924Z,7.89
2022-12-09T01:05:14.518Z,6.81
2022-12-09T01:10:11.652Z,7.68
2022-12-09T01:15:10.102Z,7.94
2022-12-09T01:20:06.537Z,6.77
2022-12-09T01:25:05.904Z,6.72
2022-12-09T01:30:03.202Z,7.90
2022-12-09T01:35:03.366Z,7.86
2022-12-09T01:40:48.459Z,6.49
2022-12-09T02:00:11.671Z,6.16
2022-12-09T02:06:38.454Z,6.74
2022-12-09T02:11:49.442Z,6.65
2022-12-09T02:16:57.925Z,7.45
2022-12-09T02:22:19.303Z,7.01
2022-12-09T02:27:37.179Z,7.26
2022-12-09T02:33:15.538Z,6.51
2022-12-09T02:38:28.848Z,7.73
2022-12-09T02:43:49.444Z,6.81
2022-12-09T02:49:08.682Z,7.43
2022-12-09T02:54:15.901Z,6.68
2022-12-09T02:59:24.580Z,7.40
2022-12-09T03:04:30.710Z,6.77
2022-12-09T03:09:31.484Z,6.64
2022-12-09T03:14:31.366Z,7.27
2022-12-09T03:19:40.163Z,7.37
2022-12-09T03:24:40.792Z,6.82
2022-12-09T03:29:42.131Z,7.76
2022-12-09T03:34:51.227Z,7.06
2022-12-09T03:39:53.258Z,6.60
2022-12-09T03:44:54.397Z,7.30
2022-12-09T03:49:48.687Z,7.17
2022-12-09T03:54:50.294Z,6.82
2022-12-09T03:59:48.938Z,6.92
2022-12-09T04:04:43.912Z,6.93
2022-12-09T04:10:09.561Z,7.24
2022-12-09T04:15:47.548Z,6.43
2022-12-09T04:20:46.722Z,6.87
2022-12-09T04:25:51.793Z,7.30
2022-12-09T04:30:55.340Z,6.57
2022-12-09T04:36:12.574Z,6.83
2022-12-09T04:41:21.647Z,6.30
2022-12-09T04:46:18.717Z,6.76
2022-12-09T04:51:40.288Z,6.68
2022-12-09T04:56:55.207Z,6.36
2022-12-09T05:01:56.091Z,6.84
2022-12-09T05:07:13.879Z,6.34
2022-12-09T05:12:15.199Z,7.11
2022-12-09T05:17:22.850Z,5.93
2022-12-09T05:27:58.930Z,7.08
2022-12-09T05:35:24.527Z,6.34
2022-12-09T05:53:32.220Z,7.42
2022-12-09T05:57:57.445Z,5.93
2022-12-09T06:04:28.749Z,5.89
2022-12-09T06:15:58.146Z,7.31
2022-12-09T06:21:31.717Z,6.30
2022-12-09T06:27:30.348Z,6.93
2022-12-09T06:50:45.257Z,7.39
2022-12-09T06:55:38.558Z,6.48
2022-12-09T07:00:33.448Z,6.93
2022-12-09T07:05:27.815Z,7.36
2022-12-09T07:10:22.933Z,7.14
2022-12-09T07:15:16.512Z,6.86
2022-12-09T07:20:11.321Z,7.42
2022-12-09T07:25:06.103Z,6.33
2022-12-09T07:30:04.155Z,6.46
2022-12-09T07:34:57.877Z,7.27
2022-12-09T07:39:51.451Z,7.32
2022-12-09T07:44:44.964Z,7.48
2022-12-09T07:49:40.000Z,7.14
2022-12-09T07:54:33.919Z,7.23
2022-12-09T07:59:27.183Z,6.99
2022-12-09T08:04:20.882Z,7.65
2022-12-09T08:09:16.101Z,7.77
2022-12-09T08:14:14.252Z,7.81
2022-12-09T08:19:08.161Z,7.84
2022-12-09T08:24:03.470Z,7.42
2022-12-09T08:28:59.023Z,7.25
2022-12-09T08:33:54.133Z,7.98
2022-12-09T08:38:48.736Z,7.77
2022-12-09T08:43:43.055Z,7.44
2022-12-09T08:48:39.838Z,7.66
2022-12-09T08:53:39.941Z,7.98
2022-12-09T08:59:06.090Z,7.75
2022-12-09T09:04:02.762Z,7.70
2022-12-09T09:08:57.572Z,7.92
2022-12-09T09:13:52.477Z,7.30
2022-12-09T09:18:49.875Z,7.83
2022-12-09T09:23:45.384Z,8.03
2022-12-09T09:28:39.217Z,6.84
2022-12-09T09:33:32.732Z,8.09
2022-12-09T09:38:27.040Z,7.95
2022-12-09T09:43:25.279Z,7.32
2022-12-09T09:48:21.543Z,7.30
2022-12-09T09:53:20.321Z,6.93
2022-12-09T09:58:19.791Z,7.80
2022-12-09T10:03:22.167Z,6.70
2022-12-09T10:08:32.408Z,7.05
2022-12-09T10:13:38.682Z,7.93
2022-12-09T10:18:38.691Z,7.11
2022-12-09T10:23:34.132Z,7.94
2022-12-09T10:28:30.652Z,8.06
2022-12-09T10:33:30.539Z,8.03
2022-12-09T10:38:26.900Z,7.82
2022-12-09T10:43:38.891Z,7.77
2022-12-09T10:48:36.451Z,8.15
2022-12-09T10:53:33.164Z,8.21
2022-12-09T10:58:29.032Z,8.31
2022-12-09T11:03:28.725Z,8.18
2022-12-09T11:08:24.158Z,8.43
2022-12-09T11:13:21.654Z,8.32
2022-12-09T11:18:21.171Z,8.18
2022-12-09T11:23:17.919Z,8.64
2022-12-09T11:28:26.159Z,8.14
2022-12-09T11:33:27.240Z,8.80
2022-12-09T11:38:36.191Z,9.02
2022-12-09T11:43:42.084Z,9.01
2022-12-09T11:48:41.856Z,8.27
2022-12-09T11:53:41.944Z,7.96
2022-12-09T11:58:42.159Z,8.33
2022-12-09T12:03:39.596Z,8.78
2022-12-09T12:08:38.117Z,8.15
2022-12-09T12:13:41.570Z,8.89
2022-12-09T12:18:43.239Z,8.64
2022-12-09T12:23:52.030Z,8.11
2022-12-09T12:29:11.418Z,8.60
2022-12-09T12:34:26.008Z,8.78
2022-12-09T12:39:34.888Z,8.79
2022-12-09T12:45:00.640Z,8.61
2022-12-09T12:50:20.050Z,8.46
2022-12-09T12:55:24.726Z,8.70
2022-12-09T13:00:22.560Z,8.24
2022-12-09T13:05:22.558Z,8.46
2022-12-09T13:10:30.660Z,8.27
2022-12-09T13:15:32.447Z,8.79
2022-12-09T13:20:31.202Z,8.79
2022-12-09T13:25:35.729Z,8.77
2022-12-09T13:30:37.427Z,8.62
2022-12-09T13:35:40.169Z,8.50
2022-12-09T13:40:36.937Z,8.54
2022-12-09T13:45:35.071Z,8.52
2022-12-09T13:50:33.210Z,8.60
2022-12-09T13:55:39.998Z,8.30
2022-12-09T14:00:35.908Z,8.56
2022-12-09T14:05:32.672Z,8.10
2022-12-09T14:10:40.696Z,7.95
2022-12-09T14:15:45.532Z,7.21
2022-12-09T14:20:40.897Z,8.21
2022-12-09T14:25:51.430Z,8.28
2022-12-09T14:30:52.481Z,8.35
2022-12-09T14:35:50.428Z,7.80
2022-12-09T14:40:56.646Z,7.79
2022-12-09T14:46:01.186Z,7.92
2022-12-09T14:51:20.520Z,7.65
2022-12-09T14:56:21.100Z,7.06
2022-12-09T15:01:18.239Z,8.26
2022-12-09T15:06:17.983Z,8.00
2022-12-09T15:11:15.465Z,7.63
2022-12-09T15:16:11.051Z,8.14
2022-12-09T15:21:06.320Z,8.15
2022-12-09T15:26:01.692Z,8.00
2022-12-09T15:30:57.658Z,7.46
2022-12-09T15:35:55.094Z,7.96
2022-12-09T15:41:03.842Z,7.68
2022-12-09T15:45:57.834Z,7.72
2022-12-09T15:50:55.644Z,7.85
2022-12-09T15:55:54.225Z,7.91
2022-12-09T16:01:02.587Z,7.33
2022-12-09T16:06:01.902Z,7.60
2022-12-09T16:10:58.665Z,8.15
2022-12-09T16:15:57.323Z,7.49
2022-12-09T16:21:00.704Z,7.68
2022-12-09T16:26:07.399Z,8.11
2022-12-09T16:31:04.431Z,7.93
2022-12-09T16:36:02.312Z,7.50
2022-12-09T16:41:11.324Z,8.15
2022-12-09T16:46:37.354Z,7.01
2022-12-09T16:51:30.679Z,7.89
2022-12-09T16:56:44.080Z,7.05
2022-12-09T17:01:43.362Z,7.37
2022-12-09T17:06:36.715Z,7.81
2022-12-09T17:11:31.694Z,7.91
2022-12-09T17:16:26.989Z,8.08
2022-12-09T17:21:20.779Z,7.38
2022-12-09T17:26:22.499Z,7.55
2022-12-09T17:31:19.710Z,7.86
2022-12-09T17:36:19.218Z,8.00
2022-12-09T17:41:16.049Z,7.48
2022-12-09T17:46:13.100Z,7.78
2022-12-09T17:51:12.178Z,7.52
2022-12-09T17:56:15.030Z,7.36
2022-12-09T18:01:14.794Z,7.17
2022-12-09T18:06:10.376Z,7.89
2022-12-09T18:11:05.640Z,7.98
2022-12-09T18:15:59.590Z,7.84
2022-12-09T18:20:53.405Z,7.98
2022-12-09T18:25:49.339Z,7.90
2022-12-09T18:30:47.234Z,6.81
2022-12-09T18:35:44.068Z,7.94
2022-12-09T18:41:01.141Z,7.88
2022-12-09T18:45:56.737Z,7.21
2022-12-09T18:50:53.720Z,7.55
2022-12-09T18:56:00.345Z,7.77
2022-12-09T19:01:01.165Z,6.84
2022-12-09T19:05:59.527Z,7.62
2022-12-09T19:10:55.922Z,7.77
2022-12-09T19:15:49.589Z,7.88
2022-12-09T19:20:44.656Z,7.87
2022-12-09T19:25:42.168Z,7.82
2022-12-09T19:30:35.449Z,7.17
2022-12-09T19:35:28.804Z,7.49
2022-12-09T19:40:33.719Z,7.80
2022-12-09T19:45:27.351Z,7.21
2022-12-09T19:50:22.674Z,7.24
2022-12-09T19:55:16.039Z,7.60
2022-12-09T20:00:13.226Z,6.73
2022-12-09T20:05:07.519Z,7.78
2022-12-09T20:10:00.932Z,7.77
2022-12-09T20:14:54.202Z,7.35
2022-12-09T20:19:48.814Z,7.37
2022-12-09T20:24:43.335Z,7.50
2022-12-09T20:29:38.458Z,7.46
2022-12-09T20:34:32.175Z,7.66
2022-12-09T20:39:27.188Z,6.92
2022-12-09T20:44:24.459Z,7.63
2022-12-09T20:49:19.995Z,7.52
2022-12-09T20:54:14.088Z,7.36
2022-12-09T20:59:10.680Z,7.62
2022-12-09T21:04:06.011Z,7.60
2022-12-09T21:09:02.574Z,6.92
2022-12-09T21:14:01.532Z,7.26
2022-12-09T21:19:02.958Z,6.41
2022-12-09T21:23:56.682Z,7.54
2022-12-09T21:28:52.559Z,7.45
2022-12-09T21:33:48.150Z,7.04
2022-12-09T21:38:46.339Z,6.34
2022-12-09T21:43:42.840Z,6.20
2022-12-09T21:48:37.500Z,7.29
2022-12-09T21:53:32.053Z,6.89
2022-12-09T21:58:36.587Z,7.48
2022-12-09T22:03:32.167Z,6.71
2022-12-09T22:08:26.260Z,6.48
2022-12-09T22:13:23.255Z,6.27
2022-12-09T22:18:24.843Z,6.22
2022-12-09T22:23:23.085Z,6.15
2022-12-09T22:28:32.224Z,7.08
2022-12-09T22:33:27.339Z,6.49
2022-12-09T22:38:25.927Z,6.08
2022-12-09T22:43:33.662Z,6.10
2022-12-09T22:48:37.173Z,7.08
2022-12-09T22:53:30.703Z,6.14
2022-12-09T22:58:24.296Z,6.80
2022-12-09T23:03:21.120Z,6.36
2022-12-09T23:08:17.512Z,6.84
2022-12-09T23:13:14.150Z,5.87
2022-12-09T23:18:09.442Z,6.57
2022-12-09T23:23:05.936Z,6.35
2022-12-09T23:28:02.410Z,5.98
2022-12-09T23:32:58.696Z,6.30
2022-12-09T23:37:54.048Z,5.85
2022-12-09T23:42:48.058Z,6.24
2022-12-09T23:47:42.723Z,5.64
2022-12-09T23:52:38.187Z,6.04
2022-12-09T23:57:31.438Z,5.52
